sensor_id;sensor_type;location;lat;lon;timestamp;pressure;altitude;pressure_sealevel;temperature
18713;BMP280;9485;49.386;8.674;2023-04-24T00:03:33;99337.16;;;15.02
18713;BMP280;9485;49.386;8.674;2023-04-24T00:08:53;99336.75;;;14.99
18713;BMP280;9485;49.386;8.674;2023-04-24T00:14:16;99338.97;;;14.93
18713;BMP280;9485;49.386;8.674;2023-04-24T00:19:36;99340.50;;;14.94
18713;BMP280;9485;49.386;8.674;2023-04-24T00:24:57;99326.28;;;14.94
18713;BMP280;9485;49.386;8.674;2023-04-24T00:30:19;99335.97;;;14.98
18713;BMP280;9485;49.386;8.674;2023-04-24T00:35:40;99324.09;;;15.00
18713;BMP280;9485;49.386;8.674;2023-04-24T00:41:01;99327.56;;;15.05
18713;BMP280;9485;49.386;8.674;2023-04-24T00:46:23;99327.56;;;15.05
18713;BMP280;9485;49.386;8.674;2023-04-24T00:51:44;99345.59;;;15.08
18713;BMP280;9485;49.386;8.674;2023-04-24T00:57:05;99334.78;;;15.06
18713;BMP280;9485;49.386;8.674;2023-04-24T01:02:28;99334.78;;;15.06
18713;BMP280;9485;49.386;8.674;2023-04-24T01:07:48;99336.31;;;15.07
18713;BMP280;9485;49.386;8.674;2023-04-24T01:13:09;99329.09;;;15.06
18713;BMP280;9485;49.386;8.674;2023-04-24T01:18:32;99321.53;;;15.09
18713;BMP280;9485;49.386;8.674;2023-04-24T01:23:55;99318.13;;;15.10
18713;BMP280;9485;49.386;8.674;2023-04-24T01:29:16;99315.84;;;15.09
18713;BMP280;9485;49.386;8.674;2023-04-24T01:34:38;99325.91;;;15.10
18713;BMP280;9485;49.386;8.674;2023-04-24T01:40:00;99320.00;;;15.08
18713;BMP280;9485;49.386;8.674;2023-04-24T01:45:21;99323.41;;;15.06
18713;BMP280;9485;49.386;8.674;2023-04-24T01:50:41;99317.72;;;15.06
18713;BMP280;9485;49.386;8.674;2023-04-24T01:56:06;99314.09;;;15.06
18713;BMP280;9485;49.386;8.674;2023-04-24T02:01:27;99303.50;;;15.06
18713;BMP280;9485;49.386;8.674;2023-04-24T02:06:47;99303.16;;;15.10
18713;BMP280;9485;49.386;8.674;2023-04-24T02:12:10;99307.19;;;15.14
18713;BMP280;9485;49.386;8.674;2023-04-24T02:17:30;99308.69;;;15.15
18713;BMP280;9485;49.386;8.674;2023-04-24T02:22:51;99306.19;;;15.12
18713;BMP280;9485;49.386;8.674;2023-04-24T02:28:13;99299.19;;;15.13
18713;BMP280;9485;49.386;8.674;2023-04-24T02:33:34;99278.59;;;15.00
18713;BMP280;9485;49.386;8.674;2023-04-24T02:38:54;99294.38;;;14.88
18713;BMP280;9485;49.386;8.674;2023-04-24T02:44:16;99300.41;;;14.84
18713;BMP280;9485;49.386;8.674;2023-04-24T02:49:37;99299.22;;;14.80
18713;BMP280;9485;49.386;8.674;2023-04-24T02:54:57;99301.19;;;14.85
18713;BMP280;9485;49.386;8.674;2023-04-24T03:00:20;99306.31;;;14.86
18713;BMP280;9485;49.386;8.674;2023-04-24T03:05:42;99314.06;;;14.86
18713;BMP280;9485;49.386;8.674;2023-04-24T03:11:03;99328.81;;;14.84
18713;BMP280;9485;49.386;8.674;2023-04-24T03:16:25;99369.00;;;14.55
18713;BMP280;9485;49.386;8.674;2023-04-24T03:21:49;99376.06;;;13.97
18713;BMP280;9485;49.386;8.674;2023-04-24T03:27:10;99372.16;;;13.55
18713;BMP280;9485;49.386;8.674;2023-04-24T03:32:45;99365.22;;;13.25
18713;BMP280;9485;49.386;8.674;2023-04-24T03:38:09;99359.88;;;13.03
18713;BMP280;9485;49.386;8.674;2023-04-24T03:43:35;99356.28;;;12.84
18713;BMP280;9485;49.386;8.674;2023-04-24T03:48:59;99359.72;;;12.77
18713;BMP280;9485;49.386;8.674;2023-04-24T03:54:24;99380.47;;;12.67
18713;BMP280;9485;49.386;8.674;2023-04-24T03:59:47;99380.47;;;12.67
18713;BMP280;9485;49.386;8.674;2023-04-24T04:05:12;99395.94;;;12.66
18713;BMP280;9485;49.386;8.674;2023-04-24T04:10:35;99410.19;;;12.61
18713;BMP280;9485;49.386;8.674;2023-04-24T04:15:57;99418.13;;;12.62
18713;BMP280;9485;49.386;8.674;2023-04-24T04:21:19;99409.41;;;12.60
18713;BMP280;9485;49.386;8.674;2023-04-24T04:26:42;99426.53;;;12.49
18713;BMP280;9485;49.386;8.674;2023-04-24T04:32:06;99429.97;;;12.42
18713;BMP280;9485;49.386;8.674;2023-04-24T04:37:28;99443.19;;;12.34
18713;BMP280;9485;49.386;8.674;2023-04-24T04:43:01;99451.72;;;12.29
18713;BMP280;9485;49.386;8.674;2023-04-24T04:48:28;99461.59;;;12.22
18713;BMP280;9485;49.386;8.674;2023-04-24T04:53:54;99466.75;;;12.18
18713;BMP280;9485;49.386;8.674;2023-04-24T04:59:15;99474.78;;;12.14
18713;BMP280;9485;49.386;8.674;2023-04-24T05:04:36;99476.81;;;12.14
18713;BMP280;9485;49.386;8.674;2023-04-24T05:09:58;99467.91;;;12.04
18713;BMP280;9485;49.386;8.674;2023-04-24T05:15:19;99489.00;;;12.03
18713;BMP280;9485;49.386;8.674;2023-04-24T05:20:40;99502.66;;;12.05
18713;BMP280;9485;49.386;8.674;2023-04-24T05:26:04;99499.75;;;12.10
18713;BMP280;9485;49.386;8.674;2023-04-24T05:31:25;99489.16;;;12.16
18713;BMP280;9485;49.386;8.674;2023-04-24T05:36:48;99506.88;;;12.22
18713;BMP280;9485;49.386;8.674;2023-04-24T05:42:11;99504.97;;;12.30
18713;BMP280;9485;49.386;8.674;2023-04-24T05:47:32;99517.22;;;12.38
18713;BMP280;9485;49.386;8.674;2023-04-24T05:52:54;99511.47;;;12.49
18713;BMP280;9485;49.386;8.674;2023-04-24T05:58:20;99520.38;;;12.59
18713;BMP280;9485;49.386;8.674;2023-04-24T06:03:42;99534.81;;;12.79
18713;BMP280;9485;49.386;8.674;2023-04-24T06:09:03;99521.84;;;12.89
18713;BMP280;9485;49.386;8.674;2023-04-24T06:14:26;99533.44;;;12.85
18713;BMP280;9485;49.386;8.674;2023-04-24T06:20:06;99542.94;;;12.93
18713;BMP280;9485;49.386;8.674;2023-04-24T06:25:28;99542.56;;;13.02
18713;BMP280;9485;49.386;8.674;2023-04-24T06:30:51;99534.28;;;13.04
18713;BMP280;9485;49.386;8.674;2023-04-24T06:36:12;99550.16;;;13.13
18713;BMP280;9485;49.386;8.674;2023-04-24T06:41:33;99553.16;;;13.20
18713;BMP280;9485;49.386;8.674;2023-04-24T06:46:58;99551.25;;;13.28
18713;BMP280;9485;49.386;8.674;2023-04-24T06:52:19;99549.34;;;13.36
18713;BMP280;9485;49.386;8.674;2023-04-24T06:57:41;99550.56;;;13.41
18713;BMP280;9485;49.386;8.674;2023-04-24T07:03:03;99555.06;;;13.49
18713;BMP280;9485;49.386;8.674;2023-04-24T07:08:25;99561.19;;;13.53
18713;BMP280;9485;49.386;8.674;2023-04-24T07:13:46;99577.50;;;13.29
18713;BMP280;9485;49.386;8.674;2023-04-24T07:19:08;99596.91;;;13.01
18713;BMP280;9485;49.386;8.674;2023-04-24T07:24:29;99597.97;;;12.74
18713;BMP280;9485;49.386;8.674;2023-04-24T07:29:51;99612.00;;;12.61
18713;BMP280;9485;49.386;8.674;2023-04-24T07:35:14;99625.16;;;12.59
18713;BMP280;9485;49.386;8.674;2023-04-24T07:40:34;99618.53;;;12.51
18713;BMP280;9485;49.386;8.674;2023-04-24T07:45:55;99622.78;;;12.63
18713;BMP280;9485;49.386;8.674;2023-04-24T07:51:18;99637.84;;;12.76
18713;BMP280;9485;49.386;8.674;2023-04-24T07:56:40;99649.06;;;12.87
18713;BMP280;9485;49.386;8.674;2023-04-24T08:02:02;99658.22;;;13.04
18713;BMP280;9485;49.386;8.674;2023-04-24T08:07:24;99644.63;;;14.00
18713;BMP280;9485;49.386;8.674;2023-04-24T08:12:45;99631.66;;;15.96
18713;BMP280;9485;49.386;8.674;2023-04-24T08:18:06;99630.53;;;17.77
18713;BMP280;9485;49.386;8.674;2023-04-24T08:23:29;99646.06;;;19.21
18713;BMP280;9485;49.386;8.674;2023-04-24T08:28:50;99648.31;;;19.60
18713;BMP280;9485;49.386;8.674;2023-04-24T08:34:11;99664.34;;;18.95
18713;BMP280;9485;49.386;8.674;2023-04-24T08:39:33;99682.44;;;18.03
18713;BMP280;9485;49.386;8.674;2023-04-24T08:44:54;99685.63;;;17.09
18713;BMP280;9485;49.386;8.674;2023-04-24T08:50:16;99692.56;;;16.39
18713;BMP280;9485;49.386;8.674;2023-04-24T08:55:41;99693.75;;;15.97
18713;BMP280;9485;49.386;8.674;2023-04-24T09:01:04;99693.25;;;15.60
18713;BMP280;9485;49.386;8.674;2023-04-24T09:06:26;99700.38;;;15.54
18713;BMP280;9485;49.386;8.674;2023-04-24T09:11:49;99690.59;;;15.88
18713;BMP280;9485;49.386;8.674;2023-04-24T09:17:13;99690.28;;;16.25
18713;BMP280;9485;49.386;8.674;2023-04-24T09:22:34;99720.59;;;16.48
18713;BMP280;9485;49.386;8.674;2023-04-24T09:28:01;99714.69;;;16.46
18713;BMP280;9485;49.386;8.674;2023-04-24T09:33:22;99715.81;;;16.17
18713;BMP280;9485;49.386;8.674;2023-04-24T09:38:43;99727.28;;;15.91
18713;BMP280;9485;49.386;8.674;2023-04-24T09:44:15;99737.38;;;15.79
18713;BMP280;9485;49.386;8.674;2023-04-24T09:49:36;99735.06;;;15.78
18713;BMP280;9485;49.386;8.674;2023-04-24T09:54:58;99736.69;;;15.86
18713;BMP280;9485;49.386;8.674;2023-04-24T10:00:25;99747.75;;;16.03
18713;BMP280;9485;49.386;8.674;2023-04-24T10:05:47;99745.16;;;16.25
18713;BMP280;9485;49.386;8.674;2023-04-24T10:11:08;99733.78;;;16.25
18713;BMP280;9485;49.386;8.674;2023-04-24T10:16:32;99746.97;;;16.28
18713;BMP280;9485;49.386;8.674;2023-04-24T10:21:53;99764.81;;;16.16
18713;BMP280;9485;49.386;8.674;2023-04-24T10:27:16;99767.34;;;15.93
18713;BMP280;9485;49.386;8.674;2023-04-24T10:32:40;99770.31;;;15.75
18713;BMP280;9485;49.386;8.674;2023-04-24T10:38:05;99782.34;;;15.55
18713;BMP280;9485;49.386;8.674;2023-04-24T10:43:27;99799.41;;;15.55
18713;BMP280;9485;49.386;8.674;2023-04-24T10:48:54;99791.53;;;15.61
18713;BMP280;9485;49.386;8.674;2023-04-24T10:54:26;99782.78;;;15.72
18713;BMP280;9485;49.386;8.674;2023-04-24T10:59:52;99808.84;;;15.89
18713;BMP280;9485;49.386;8.674;2023-04-24T11:05:57;99807.22;;;16.06
18713;BMP280;9485;49.386;8.674;2023-04-24T11:11:19;99804.25;;;16.12
18713;BMP280;9485;49.386;8.674;2023-04-24T11:16:51;99798.78;;;16.40
18713;BMP280;9485;49.386;8.674;2023-04-24T11:22:17;99811.06;;;16.68
18713;BMP280;9485;49.386;8.674;2023-04-24T11:27:43;99811.91;;;17.09
18713;BMP280;9485;49.386;8.674;2023-04-24T11:33:05;99819.31;;;17.45
18713;BMP280;9485;49.386;8.674;2023-04-24T11:38:28;99827.94;;;18.01
18713;BMP280;9485;49.386;8.674;2023-04-24T11:43:49;99817.91;;;18.15
18713;BMP280;9485;49.386;8.674;2023-04-24T11:49:12;99829.22;;;18.20
18713;BMP280;9485;49.386;8.674;2023-04-24T11:54:34;99828.38;;;18.12
18713;BMP280;9485;49.386;8.674;2023-04-24T11:59:55;99821.47;;;18.01
18713;BMP280;9485;49.386;8.674;2023-04-24T12:05:20;99823.06;;;17.89
18713;BMP280;9485;49.386;8.674;2023-04-24T12:10:42;99831.13;;;17.70
18713;BMP280;9485;49.386;8.674;2023-04-24T12:16:04;99841.22;;;17.50
18713;BMP280;9485;49.386;8.674;2023-04-24T12:21:26;99839.41;;;17.20
18713;BMP280;9485;49.386;8.674;2023-04-24T12:26:52;99836.09;;;16.95
18713;BMP280;9485;49.386;8.674;2023-04-24T12:32:16;99842.78;;;16.98
18713;BMP280;9485;49.386;8.674;2023-04-24T12:37:37;99822.47;;;17.01
18713;BMP280;9485;49.386;8.674;2023-04-24T12:43:13;99822.19;;;17.12
18713;BMP280;9485;49.386;8.674;2023-04-24T12:48:35;99822.66;;;17.36
18713;BMP280;9485;49.386;8.674;2023-04-24T12:53:57;99817.53;;;18.11
18713;BMP280;9485;49.386;8.674;2023-04-24T12:59:21;99814.16;;;18.55
18713;BMP280;9485;49.386;8.674;2023-04-24T13:04:42;99822.91;;;18.57
18713;BMP280;9485;49.386;8.674;2023-04-24T13:10:06;99824.94;;;18.84
18713;BMP280;9485;49.386;8.674;2023-04-24T13:15:29;99818.00;;;19.30
18713;BMP280;9485;49.386;8.674;2023-04-24T13:20:50;99826.59;;;19.60
18713;BMP280;9485;49.386;8.674;2023-04-24T13:26:11;99807.69;;;19.35
18713;BMP280;9485;49.386;8.674;2023-04-24T13:31:33;99803.41;;;18.98
18713;BMP280;9485;49.386;8.674;2023-04-24T13:36:56;99813.50;;;18.92
18713;BMP280;9485;49.386;8.674;2023-04-24T13:42:17;99813.81;;;19.46
18713;BMP280;9485;49.386;8.674;2023-04-24T13:47:40;99810.97;;;20.99
18713;BMP280;9485;49.386;8.674;2023-04-24T13:53:02;99811.88;;;21.09
18713;BMP280;9485;49.386;8.674;2023-04-24T13:58:23;99805.00;;;20.65
18713;BMP280;9485;49.386;8.674;2023-04-24T14:03:45;99813.19;;;20.15
18713;BMP280;9485;49.386;8.674;2023-04-24T14:09:06;99815.94;;;19.61
18713;BMP280;9485;49.386;8.674;2023-04-24T14:14:27;99820.00;;;19.00
18713;BMP280;9485;49.386;8.674;2023-04-24T14:19:50;99812.91;;;18.36
18713;BMP280;9485;49.386;8.674;2023-04-24T14:25:11;99814.16;;;17.92
18713;BMP280;9485;49.386;8.674;2023-04-24T14:30:31;99815.13;;;17.46
18713;BMP280;9485;49.386;8.674;2023-04-24T14:35:54;99805.78;;;17.26
18713;BMP280;9485;49.386;8.674;2023-04-24T14:41:15;99814.06;;;17.16
18713;BMP280;9485;49.386;8.674;2023-04-24T14:46:36;99807.09;;;17.04
18713;BMP280;9485;49.386;8.674;2023-04-24T14:51:59;99808.97;;;16.81
18713;BMP280;9485;49.386;8.674;2023-04-24T14:57:22;99825.22;;;16.73
18713;BMP280;9485;49.386;8.674;2023-04-24T15:02:46;99837.84;;;16.52
18713;BMP280;9485;49.386;8.674;2023-04-24T15:08:09;99852.78;;;16.19
18713;BMP280;9485;49.386;8.674;2023-04-24T15:13:32;99840.06;;;16.07
18713;BMP280;9485;49.386;8.674;2023-04-24T15:18:52;99842.34;;;16.22
18713;BMP280;9485;49.386;8.674;2023-04-24T15:24:14;99840.06;;;16.20
18713;BMP280;9485;49.386;8.674;2023-04-24T15:29:35;99846.09;;;16.17
18713;BMP280;9485;49.386;8.674;2023-04-24T15:34:55;99851.13;;;16.11
18713;BMP280;9485;49.386;8.674;2023-04-24T15:40:17;99847.19;;;16.01
18713;BMP280;9485;49.386;8.674;2023-04-24T15:45:38;99851.34;;;15.87
18713;BMP280;9485;49.386;8.674;2023-04-24T15:50:59;99856.59;;;15.70
18713;BMP280;9485;49.386;8.674;2023-04-24T15:56:21;99845.03;;;15.50
18713;BMP280;9485;49.386;8.674;2023-04-24T16:01:42;99844.91;;;15.42
18713;BMP280;9485;49.386;8.674;2023-04-24T16:07:03;99843.69;;;15.38
18713;BMP280;9485;49.386;8.674;2023-04-24T16:12:25;99841.59;;;15.38
18713;BMP280;9485;49.386;8.674;2023-04-24T16:17:46;99840.44;;;15.47
18713;BMP280;9485;49.386;8.674;2023-04-24T16:23:07;99838.28;;;15.66
18713;BMP280;9485;49.386;8.674;2023-04-24T16:28:29;99828.03;;;15.88
18713;BMP280;9485;49.386;8.674;2023-04-24T16:33:50;99827.16;;;16.06
18713;BMP280;9485;49.386;8.674;2023-04-24T16:39:10;99830.41;;;16.10
18713;BMP280;9485;49.386;8.674;2023-04-24T16:44:35;99825.84;;;16.07
18713;BMP280;9485;49.386;8.674;2023-04-24T16:49:58;99834.94;;;16.06
18713;BMP280;9485;49.386;8.674;2023-04-24T16:55:18;99823.53;;;15.93
18713;BMP280;9485;49.386;8.674;2023-04-24T17:00:40;99829.22;;;15.93
18713;BMP280;9485;49.386;8.674;2023-04-24T17:06:01;99833.28;;;15.97
18713;BMP280;9485;49.386;8.674;2023-04-24T17:11:21;99832.63;;;16.04
18713;BMP280;9485;49.386;8.674;2023-04-24T17:16:43;99834.94;;;16.06
18713;BMP280;9485;49.386;8.674;2023-04-24T17:22:04;99829.44;;;15.95
18713;BMP280;9485;49.386;8.674;2023-04-24T17:27:25;99834.06;;;15.85
18713;BMP280;9485;49.386;8.674;2023-04-24T17:32:47;99836.75;;;15.77
18713;BMP280;9485;49.386;8.674;2023-04-24T17:38:08;99838.94;;;15.72
18713;BMP280;9485;49.386;8.674;2023-04-24T17:43:28;99845.06;;;15.63
18713;BMP280;9485;49.386;8.674;2023-04-24T17:48:50;99840.25;;;15.58
18713;BMP280;9485;49.386;8.674;2023-04-24T17:54:11;99840.97;;;15.45
18713;BMP280;9485;49.386;8.674;2023-04-24T17:59:32;99837.44;;;15.26
18713;BMP280;9485;49.386;8.674;2023-04-24T18:04:56;99841.81;;;15.09
18713;BMP280;9485;49.386;8.674;2023-04-24T18:10:17;99848.22;;;14.97
18713;BMP280;9485;49.386;8.674;2023-04-24T18:15:38;99847.84;;;14.87
18713;BMP280;9485;49.386;8.674;2023-04-24T18:21:04;99849.00;;;14.79
18713;BMP280;9485;49.386;8.674;2023-04-24T18:26:25;99856.13;;;14.67
18713;BMP280;9485;49.386;8.674;2023-04-24T18:31:46;99855.44;;;14.61
18713;BMP280;9485;49.386;8.674;2023-04-24T18:37:08;99856.53;;;14.58
18713;BMP280;9485;49.386;8.674;2023-04-24T18:42:29;99855.63;;;14.50
18713;BMP280;9485;49.386;8.674;2023-04-24T18:47:50;99871.75;;;14.60
18713;BMP280;9485;49.386;8.674;2023-04-24T18:53:11;99873.03;;;14.59
18713;BMP280;9485;49.386;8.674;2023-04-24T18:58:35;99883.09;;;14.60
18713;BMP280;9485;49.386;8.674;2023-04-24T19:03:55;99890.09;;;14.59
18713;BMP280;9485;49.386;8.674;2023-04-24T19:09:17;99892.94;;;14.59
18713;BMP280;9485;49.386;8.674;2023-04-24T19:14:38;99895.53;;;14.57
18713;BMP280;9485;49.386;8.674;2023-04-24T19:19:59;99902.31;;;14.54
18713;BMP280;9485;49.386;8.674;2023-04-24T19:25:21;99911.63;;;14.49
18713;BMP280;9485;49.386;8.674;2023-04-24T19:30:42;99915.38;;;14.39
18713;BMP280;9485;49.386;8.674;2023-04-24T19:36:03;99914.41;;;14.13
18713;BMP280;9485;49.386;8.674;2023-04-24T19:41:25;99925.75;;;13.83
18713;BMP280;9485;49.386;8.674;2023-04-24T19:46:46;99919.00;;;13.62
18713;BMP280;9485;49.386;8.674;2023-04-24T19:52:07;99917.13;;;13.41
18713;BMP280;9485;49.386;8.674;2023-04-24T19:57:29;99905.94;;;13.19
18713;BMP280;9485;49.386;8.674;2023-04-24T20:02:50;99915.84;;;13.02
18713;BMP280;9485;49.386;8.674;2023-04-24T20:08:10;99913.31;;;12.93
18713;BMP280;9485;49.386;8.674;2023-04-24T20:13:33;99914.66;;;12.86
18713;BMP280;9485;49.386;8.674;2023-04-24T20:18:53;99920.06;;;12.79
18713;BMP280;9485;49.386;8.674;2023-04-24T20:24:14;99916.22;;;12.76
18713;BMP280;9485;49.386;8.674;2023-04-24T20:29:36;99923.16;;;12.81
18713;BMP280;9485;49.386;8.674;2023-04-24T20:34:56;99913.84;;;12.86
18713;BMP280;9485;49.386;8.674;2023-04-24T20:40:17;99910.56;;;12.87
18713;BMP280;9485;49.386;8.674;2023-04-24T20:45:39;99906.44;;;12.88
18713;BMP280;9485;49.386;8.674;2023-04-24T20:51:00;99902.06;;;12.87
18713;BMP280;9485;49.386;8.674;2023-04-24T20:56:20;99900.47;;;12.86
18713;BMP280;9485;49.386;8.674;2023-04-24T21:01:44;99900.22;;;12.90
18713;BMP280;9485;49.386;8.674;2023-04-24T21:07:06;99899.69;;;12.91
18713;BMP280;9485;49.386;8.674;2023-04-24T21:12:27;99898.94;;;12.91
18713;BMP280;9485;49.386;8.674;2023-04-24T21:17:49;99876.25;;;12.85
18713;BMP280;9485;49.386;8.674;2023-04-24T21:23:10;99880.88;;;12.94
18713;BMP280;9485;49.386;8.674;2023-04-24T21:28:30;99881.38;;;12.98
18713;BMP280;9485;49.386;8.674;2023-04-24T21:33:52;99870.88;;;12.87
18713;BMP280;9485;49.386;8.674;2023-04-24T21:39:13;99878.03;;;12.94
18713;BMP280;9485;49.386;8.674;2023-04-24T21:44:34;99875.69;;;12.98
18713;BMP280;9485;49.386;8.674;2023-04-24T21:49:56;99877.75;;;12.97
18713;BMP280;9485;49.386;8.674;2023-04-24T21:55:16;99869.25;;;12.97
18713;BMP280;9485;49.386;8.674;2023-04-24T22:00:37;99871.88;;;12.95
18713;BMP280;9485;49.386;8.674;2023-04-24T22:05:59;99876.22;;;12.96
18713;BMP280;9485;49.386;8.674;2023-04-24T22:11:20;99876.47;;;12.98
18713;BMP280;9485;49.386;8.674;2023-04-24T22:16:41;99861.81;;;12.94
18713;BMP280;9485;49.386;8.674;2023-04-24T22:22:03;99859.75;;;12.95
18713;BMP280;9485;49.386;8.674;2023-04-24T22:27:24;99859.22;;;12.96
18713;BMP280;9485;49.386;8.674;2023-04-24T22:32:45;99859.47;;;12.98
18713;BMP280;9485;49.386;8.674;2023-04-24T22:38:06;99861.28;;;12.96
18713;BMP280;9485;49.386;8.674;2023-04-24T22:43:27;99850.75;;;12.85
18713;BMP280;9485;49.386;8.674;2023-04-24T22:48:48;99849.25;;;12.79
18713;BMP280;9485;49.386;8.674;2023-04-24T22:54:09;99844.66;;;12.76
18713;BMP280;9485;49.386;8.674;2023-04-24T22:59:30;99831.53;;;12.73
18713;BMP280;9485;49.386;8.674;2023-04-24T23:04:51;99833.84;;;12.74
18713;BMP280;9485;49.386;8.674;2023-04-24T23:10:14;99836.69;;;12.74
18713;BMP280;9485;49.386;8.674;2023-04-24T23:15:34;99840.53;;;12.77
18713;BMP280;9485;49.386;8.674;2023-04-24T23:20:57;99834.59;;;12.75
18713;BMP280;9485;49.386;8.674;2023-04-24T23:26:21;99834.88;;;12.72
18713;BMP280;9485;49.386;8.674;2023-04-24T23:31:42;99839.25;;;12.73
18713;BMP280;9485;49.386;8.674;2023-04-24T23:37:02;99828.75;;;12.68
18713;BMP280;9485;49.386;8.674;2023-04-24T23:42:24;99812.13;;;12.48
18713;BMP280;9485;49.386;8.674;2023-04-24T23:47:45;99823.50;;;12.42
18713;BMP280;9485;49.386;8.674;2023-04-24T23:53:05;99828.41;;;12.36
18713;BMP280;9485;49.386;8.674;2023-04-24T23:58:27;99820.69;;;12.31
